createdAt,value
2023-05-22T00:01:49.372Z,100721.31
2023-05-22T00:04:21.169Z,100719.38
2023-05-22T00:06:48.144Z,100718.91
2023-05-22T00:09:15.148Z,100707.91
2023-05-22T00:11:41.613Z,100715.53
2023-05-22T00:14:08.028Z,100710.00
2023-05-22T00:16:34.420Z,100706.38
2023-05-22T00:19:01.933Z,100716.47
2023-05-22T00:21:28.358Z,100716.22
2023-05-22T00:23:54.762Z,100714.31
2023-05-22T00:26:23.309Z,100710.50
2023-05-22T00:28:49.804Z,100710.31
2023-05-22T00:31:16.615Z,100708.06
2023-05-22T00:33:43.024Z,100715.34
2023-05-22T00:36:09.654Z,100709.34
2023-05-22T00:38:37.464Z,100718.97
2023-05-22T00:41:04.051Z,100723.44
2023-05-22T00:43:30.604Z,100719.84
2023-05-22T00:45:57.715Z,100721.66
2023-05-22T00:48:26.174Z,100723.09
2023-05-22T00:50:54.204Z,100720.63
2023-05-22T00:53:20.610Z,100723.13
2023-05-22T00:55:47.382Z,100717.00
2023-05-22T00:58:14.472Z,100719.50
2023-05-22T01:00:42.095Z,100720.75
2023-05-22T01:03:09.724Z,100716.38
2023-05-22T01:05:36.280Z,100719.22
2023-05-22T01:08:02.634Z,100722.53
2023-05-22T01:10:29.100Z,100716.16
2023-05-22T01:12:55.518Z,100722.81
2023-05-22T01:15:21.934Z,100710.25
2023-05-22T01:17:48.479Z,100710.78
2023-05-22T01:20:15.017Z,100700.47
2023-05-22T01:22:42.577Z,100706.00
2023-05-22T01:25:09.021Z,100703.44
2023-05-22T01:27:35.522Z,100705.28
2023-05-22T01:30:01.939Z,100698.09
2023-05-22T01:32:28.940Z,100699.84
2023-05-22T01:34:55.500Z,100695.34
2023-05-22T01:37:22.623Z,100696.72
2023-05-22T01:39:49.282Z,100700.03
2023-05-22T01:42:15.932Z,100692.44
2023-05-22T01:44:42.333Z,100697.63
2023-05-22T01:47:08.678Z,100697.38
2023-05-22T01:49:36.425Z,100692.88
2023-05-22T01:52:02.925Z,100700.41
2023-05-22T01:54:30.256Z,100694.53
2023-05-22T01:56:56.986Z,100688.16
2023-05-22T01:59:25.523Z,100689.06
2023-05-22T02:01:52.231Z,100687.84
2023-05-22T02:04:18.678Z,100686.91
2023-05-22T02:06:45.053Z,100689.84
2023-05-22T02:09:11.506Z,100690.44
2023-05-22T02:11:38.247Z,100689.31
2023-05-22T02:14:04.666Z,100684.38
2023-05-22T02:16:31.159Z,100691.28
2023-05-22T02:18:57.684Z,100692.00
2023-05-22T02:21:24.093Z,100690.78
2023-05-22T02:23:50.618Z,100693.06
2023-05-22T02:26:17.880Z,100693.59
2023-05-22T02:28:44.424Z,100688.56
2023-05-22T02:31:11.100Z,100684.16
2023-05-22T02:33:37.529Z,100687.31
2023-05-22T02:36:04.193Z,100693.06
2023-05-22T02:38:30.640Z,100681.72
2023-05-22T02:40:57.113Z,100675.06
2023-05-22T02:43:23.538Z,100681.53
2023-05-22T02:45:50.791Z,100678.47
2023-05-22T02:48:17.459Z,100682.72
2023-05-22T02:50:44.236Z,100688.84
2023-05-22T02:53:11.008Z,100687.91
2023-05-22T02:55:37.426Z,100689.47
2023-05-22T02:58:04.041Z,100689.09
2023-05-22T03:00:31.310Z,100683.75
2023-05-22T03:02:57.880Z,100680.84
2023-05-22T03:05:24.421Z,100683.41
2023-05-22T03:07:52.948Z,100682.00
2023-05-22T03:10:19.505Z,100677.38
2023-05-22T03:12:45.980Z,100678.81
2023-05-22T03:15:12.808Z,100676.69
2023-05-22T03:17:41.236Z,100682.75
2023-05-22T03:20:08.741Z,100677.50
2023-05-22T03:22:35.269Z,100683.72
2023-05-22T03:25:01.673Z,100686.66
2023-05-22T03:27:29.266Z,100684.66
2023-05-22T03:29:55.827Z,100674.53
2023-05-22T03:32:23.446Z,100677.09
2023-05-22T03:34:49.952Z,100683.88
2023-05-22T03:37:16.544Z,100680.50
2023-05-22T03:39:43.107Z,100683.97
2023-05-22T03:42:18.947Z,100682.91
2023-05-22T03:44:46.062Z,100678.41
2023-05-22T03:47:12.735Z,100673.38
2023-05-22T03:49:39.173Z,100671.72
2023-05-22T03:52:05.622Z,100686.81
2023-05-22T03:54:31.990Z,100678.97
2023-05-22T03:56:58.385Z,100684.78
2023-05-22T03:59:24.876Z,100677.38
2023-05-22T04:01:51.353Z,100684.34
2023-05-22T04:04:17.817Z,100677.09
2023-05-22T04:06:44.282Z,100678.38
2023-05-22T04:09:12.703Z,100675.03
2023-05-22T04:11:42.438Z,100677.03
2023-05-22T04:14:08.887Z,100682.69
2023-05-22T04:16:35.322Z,100681.75
2023-05-22T04:19:03.255Z,100688.88
2023-05-22T04:21:29.873Z,100684.63
2023-05-22T04:23:56.362Z,100683.63
2023-05-22T04:26:23.423Z,100683.13
2023-05-22T04:28:49.873Z,100692.31
2023-05-22T04:31:17.038Z,100689.75
2023-05-22T04:33:48.245Z,100694.44
2023-05-22T04:36:14.668Z,100685.44
2023-05-22T04:38:41.427Z,100696.56
2023-05-22T04:41:11.121Z,100697.56
2023-05-22T04:43:38.724Z,100705.19
2023-05-22T04:46:05.221Z,100704.56
2023-05-22T04:48:31.635Z,100703.69
2023-05-22T04:50:58.480Z,100704.66
2023-05-22T04:53:25.016Z,100702.56
2023-05-22T04:55:52.877Z,100699.03
2023-05-22T04:58:19.569Z,100696.31
2023-05-22T05:00:46.014Z,100693.59
2023-05-22T05:03:12.833Z,100692.22
2023-05-22T05:05:41.605Z,100695.47
2023-05-22T05:08:08.308Z,100697.03
2023-05-22T05:10:34.888Z,100696.72
2023-05-22T05:13:01.614Z,100705.19
2023-05-22T05:15:29.359Z,100704.28
2023-05-22T05:17:56.153Z,100706.94
2023-05-22T05:20:22.620Z,100702.75
2023-05-22T05:22:49.995Z,100705.97
2023-05-22T05:25:17.496Z,100701.41
2023-05-22T05:27:43.984Z,100704.56
2023-05-22T05:30:10.866Z,100709.72
2023-05-22T05:33:09.880Z,100704.25
2023-05-22T05:35:56.035Z,100699.09
2023-05-22T05:38:24.484Z,100702.91
2023-05-22T05:40:50.972Z,100709.72
2023-05-22T05:43:19.381Z,100706.97
2023-05-22T05:45:45.871Z,100704.19
2023-05-22T05:48:12.771Z,100713.28
2023-05-22T05:50:42.782Z,100711.63
2023-05-22T05:53:09.370Z,100713.72
2023-05-22T05:55:35.947Z,100707.06
2023-05-22T05:58:03.728Z,100714.03
2023-05-22T06:00:45.936Z,100719.09
2023-05-22T06:03:14.454Z,100705.31
2023-05-22T06:05:49.808Z,100719.00
2023-05-22T06:08:22.748Z,100719.81
2023-05-22T06:10:49.706Z,100715.00
2023-05-22T06:13:31.401Z,100722.22
2023-05-22T06:16:00.501Z,100718.00
2023-05-22T06:18:28.613Z,100719.31
2023-05-22T06:20:58.998Z,100722.72
2023-05-22T06:23:25.828Z,100713.22
2023-05-22T06:25:54.062Z,100727.31
2023-05-22T06:28:21.322Z,100725.34
2023-05-22T06:30:48.240Z,100732.63
2023-05-22T06:33:18.549Z,100726.41
2023-05-22T06:35:45.522Z,100728.94
2023-05-22T06:38:12.069Z,100736.41
2023-05-22T06:40:40.625Z,100738.34
2023-05-22T06:43:16.769Z,100747.13
2023-05-22T06:45:53.930Z,100743.09
2023-05-22T06:48:23.632Z,100748.84
2023-05-22T06:51:16.987Z,100750.16
2023-05-22T06:53:47.188Z,100750.41
2023-05-22T06:56:18.260Z,100744.66
2023-05-22T06:58:57.124Z,100751.72
2023-05-22T07:01:31.496Z,100742.00
2023-05-22T07:04:05.365Z,100756.44
2023-05-22T07:06:54.776Z,100752.91
2023-05-22T07:09:21.645Z,100749.03
2023-05-22T07:11:49.104Z,100750.75
2023-05-22T07:14:16.353Z,100759.25
2023-05-22T07:16:43.764Z,100758.47
2023-05-22T07:19:11.914Z,100763.44
2023-05-22T07:21:39.242Z,100762.00
2023-05-22T07:24:10.608Z,100772.16
2023-05-22T07:26:40.373Z,100769.13
2023-05-22T07:29:10.516Z,100771.69
2023-05-22T07:31:39.028Z,100768.59
2023-05-22T07:34:05.768Z,100781.44
2023-05-22T07:36:32.534Z,100784.00
2023-05-22T07:38:58.954Z,100797.03
2023-05-22T07:41:25.598Z,100798.63
2023-05-22T07:43:52.338Z,100792.16
2023-05-22T07:46:25.000Z,100790.69
2023-05-22T07:48:57.901Z,100793.19
2023-05-22T07:51:24.528Z,100796.72
2023-05-22T07:53:51.604Z,100799.69
2023-05-22T07:56:18.026Z,100802.66
2023-05-22T07:58:48.312Z,100808.88
2023-05-22T08:01:18.401Z,100801.28
2023-05-22T08:03:44.975Z,100804.13
2023-05-22T08:06:11.754Z,100810.19
2023-05-22T08:08:38.279Z,100808.59
2023-05-22T08:11:04.956Z,100807.34
2023-05-22T08:13:32.211Z,100818.72
2023-05-22T08:16:00.243Z,100818.41
2023-05-22T08:18:29.018Z,100815.84
2023-05-22T08:20:55.933Z,100817.63
2023-05-22T08:23:22.423Z,100809.06
2023-05-22T08:25:50.090Z,100817.38
2023-05-22T08:28:16.536Z,100818.50
2023-05-22T08:30:42.987Z,100803.06
2023-05-22T08:33:09.430Z,100812.72
2023-05-22T08:35:36.010Z,100819.47
2023-05-22T08:38:02.507Z,100817.63
2023-05-22T08:40:28.906Z,100819.81
2023-05-22T08:42:57.474Z,100823.91
2023-05-22T08:45:25.873Z,100824.56
2023-05-22T08:47:53.186Z,100824.59
2023-05-22T08:50:19.669Z,100825.94
2023-05-22T08:52:46.070Z,100825.09
2023-05-22T08:55:12.564Z,100822.38
2023-05-22T08:57:38.999Z,100819.13
2023-05-22T09:00:05.735Z,100822.56
2023-05-22T09:02:32.162Z,100828.19
2023-05-22T09:04:58.716Z,100835.41
2023-05-22T09:07:27.891Z,100835.38
2023-05-22T09:09:54.312Z,100844.91
2023-05-22T09:12:20.710Z,100838.81
2023-05-22T09:14:47.150Z,100845.31
2023-05-22T09:17:13.786Z,100844.78
2023-05-22T09:19:40.785Z,100847.28
2023-05-22T09:22:07.561Z,100842.13
2023-05-22T09:24:34.914Z,100851.47
2023-05-22T09:27:01.360Z,100864.84
2023-05-22T09:29:27.741Z,100857.44
2023-05-22T09:31:54.212Z,100857.94
2023-05-22T09:34:20.769Z,100845.22
2023-05-22T09:36:47.294Z,100843.94
2023-05-22T09:39:13.825Z,100851.50
2023-05-22T09:41:40.267Z,100851.22
2023-05-22T09:44:06.684Z,100846.09
2023-05-22T09:46:33.087Z,100847.16
2023-05-22T09:48:59.545Z,100852.00
2023-05-22T09:51:27.372Z,100849.72
2023-05-22T09:53:54.294Z,100853.34
2023-05-22T09:56:34.878Z,100853.41
2023-05-22T09:59:05.409Z,100851.78
2023-05-22T10:01:32.023Z,100848.28
2023-05-22T10:03:58.486Z,100847.41
2023-05-22T10:06:24.958Z,100854.41
2023-05-22T10:08:51.645Z,100851.03
2023-05-22T10:11:18.031Z,100861.38
2023-05-22T10:13:45.192Z,100855.72
2023-05-22T10:16:12.174Z,100854.56
2023-05-22T10:18:38.663Z,100850.88
2023-05-22T10:21:05.074Z,100850.53
2023-05-22T10:23:31.808Z,100840.63
2023-05-22T10:25:58.250Z,100843.00
2023-05-22T10:28:24.654Z,100840.50
2023-05-22T10:30:51.211Z,100845.53
2023-05-22T10:33:37.910Z,100836.47
2023-05-22T10:36:04.518Z,100837.00
2023-05-22T10:38:30.981Z,100828.94
2023-05-22T10:40:57.427Z,100825.50
2023-05-22T10:43:23.946Z,100826.91
2023-05-22T10:45:50.427Z,100821.34
2023-05-22T10:48:16.864Z,100822.75
2023-05-22T10:50:43.807Z,100828.41
2023-05-22T10:53:10.238Z,100816.28
2023-05-22T10:55:36.721Z,100813.34
2023-05-22T10:58:05.050Z,100810.91
2023-05-22T11:00:31.651Z,100822.31
2023-05-22T11:03:10.076Z,100811.84
2023-05-22T11:05:43.940Z,100814.25
2023-05-22T11:08:10.434Z,100814.44
2023-05-22T11:10:36.822Z,100805.94
2023-05-22T11:13:03.883Z,100813.13
2023-05-22T11:15:30.310Z,100807.13
2023-05-22T11:17:57.776Z,100807.50
2023-05-22T11:20:24.767Z,100813.56
2023-05-22T11:22:53.488Z,100802.63
2023-05-22T11:25:20.093Z,100797.00
2023-05-22T11:27:46.515Z,100804.75
2023-05-22T11:30:13.168Z,100804.88
2023-05-22T11:32:39.827Z,100803.88
2023-05-22T11:35:08.195Z,100800.25
2023-05-22T11:37:34.636Z,100795.66
2023-05-22T11:40:01.212Z,100805.53
2023-05-22T11:42:27.718Z,100799.28
2023-05-22T11:44:54.140Z,100798.44
2023-05-22T11:47:20.626Z,100783.97
2023-05-22T11:49:46.997Z,100791.25
2023-05-22T11:52:13.442Z,100790.28
2023-05-22T11:54:39.881Z,100786.78
2023-05-22T11:57:06.814Z,100784.00
2023-05-22T11:59:33.227Z,100787.41
2023-05-22T12:01:59.971Z,100784.31
2023-05-22T12:04:26.436Z,100793.22
2023-05-22T12:06:53.060Z,100787.63
2023-05-22T12:09:19.540Z,100771.50
2023-05-22T12:11:46.676Z,100780.34
2023-05-22T12:14:13.108Z,100775.91
2023-05-22T12:16:39.780Z,100769.72
2023-05-22T12:19:06.510Z,100770.25
2023-05-22T12:21:33.029Z,100765.31
2023-05-22T12:23:59.459Z,100768.38
2023-05-22T12:26:25.849Z,100759.19
2023-05-22T12:28:52.315Z,100776.66
2023-05-22T12:31:18.714Z,100761.50
2023-05-22T12:33:45.106Z,100766.03
2023-05-22T12:36:11.549Z,100762.94
2023-05-22T12:38:38.555Z,100756.13
2023-05-22T12:41:05.125Z,100764.09
2023-05-22T12:43:31.519Z,100766.34
2023-05-22T12:45:58.590Z,100763.75
2023-05-22T12:48:26.164Z,100755.31
2023-05-22T12:50:52.622Z,100766.16
2023-05-22T12:53:19.615Z,100751.03
2023-05-22T12:55:46.018Z,100752.34
2023-05-22T12:58:12.413Z,100748.25
2023-05-22T13:00:39.033Z,100752.06
2023-05-22T13:03:05.705Z,100747.31
2023-05-22T13:05:32.263Z,100745.22
2023-05-22T13:07:58.703Z,100740.09
2023-05-22T13:10:25.220Z,100740.84
2023-05-22T13:12:51.721Z,100739.28
2023-05-22T13:15:18.194Z,100748.59
2023-05-22T13:17:44.658Z,100748.00
2023-05-22T13:20:11.194Z,100743.91
2023-05-22T13:22:37.678Z,100748.06
2023-05-22T13:25:04.110Z,100740.34
2023-05-22T13:27:32.683Z,100746.03
2023-05-22T13:30:00.225Z,100743.28
2023-05-22T13:32:26.728Z,100739.59
2023-05-22T13:34:53.180Z,100743.16
2023-05-22T13:37:19.754Z,100724.06
2023-05-22T13:39:46.261Z,100724.47
2023-05-22T13:42:12.645Z,100719.81
2023-05-22T13:44:39.089Z,100720.94
2023-05-22T13:47:05.555Z,100730.88
2023-05-22T13:49:31.981Z,100721.84
2023-05-22T13:51:58.397Z,100711.38
2023-05-22T13:54:24.801Z,100716.22
2023-05-22T13:56:51.220Z,100723.06
2023-05-22T13:59:17.657Z,100714.44
2023-05-22T14:01:44.111Z,100722.03
2023-05-22T14:04:10.521Z,100730.81
2023-05-22T14:06:36.942Z,100727.22
2023-05-22T14:09:06.007Z,100728.47
2023-05-22T14:11:32.390Z,100723.91
2023-05-22T14:13:58.873Z,100728.41
2023-05-22T14:16:25.337Z,100733.72
2023-05-22T14:18:51.966Z,100732.25
2023-05-22T14:21:19.001Z,100736.31
2023-05-22T14:23:45.627Z,100747.16
2023-05-22T14:26:13.694Z,100737.69
2023-05-22T14:28:40.913Z,100739.75
2023-05-22T14:31:07.360Z,100727.47
2023-05-22T14:33:33.900Z,100729.31
2023-05-22T14:36:00.300Z,100738.66
2023-05-22T14:38:26.732Z,100723.50
2023-05-22T14:40:53.133Z,100721.91
2023-05-22T14:43:19.580Z,100737.56
2023-05-22T14:45:45.954Z,100723.25
2023-05-22T14:48:12.805Z,100726.41
2023-05-22T14:50:39.292Z,100727.50
2023-05-22T14:53:05.792Z,100718.81
2023-05-22T14:55:32.222Z,100720.41
2023-05-22T14:57:58.656Z,100718.75
2023-05-22T15:00:25.111Z,100725.38
2023-05-22T15:02:51.655Z,100713.13
2023-05-22T15:05:18.206Z,100714.28
2023-05-22T15:07:46.705Z,100702.31
2023-05-22T15:10:14.327Z,100707.88
2023-05-22T15:12:40.835Z,100713.88
2023-05-22T15:15:07.358Z,100708.00
2023-05-22T15:17:33.862Z,100705.69
2023-05-22T15:20:00.443Z,100706.66
2023-05-22T15:22:26.884Z,100707.06
2023-05-22T15:24:53.283Z,100694.09
2023-05-22T15:27:19.719Z,100695.31
2023-05-22T15:29:46.114Z,100696.41
2023-05-22T15:32:12.641Z,100685.91
2023-05-22T15:34:39.060Z,100689.69
2023-05-22T15:37:05.476Z,100679.38
2023-05-22T15:39:31.983Z,100683.03
2023-05-22T15:42:05.884Z,100703.53
2023-05-22T15:44:33.317Z,100692.75
2023-05-22T15:46:59.756Z,100685.75
2023-05-22T15:49:28.626Z,100671.03
2023-05-22T15:51:56.642Z,100690.13
2023-05-22T15:54:23.036Z,100689.78
2023-05-22T15:56:49.501Z,100675.66
2023-05-22T15:59:15.863Z,100677.22
2023-05-22T16:01:42.424Z,100675.34
2023-05-22T16:04:08.826Z,100672.22
2023-05-22T16:06:35.282Z,100678.44
2023-05-22T16:09:01.664Z,100680.59
2023-05-22T16:11:28.094Z,100684.75
2023-05-22T16:13:54.489Z,100677.38
2023-05-22T16:16:21.255Z,100700.47
2023-05-22T16:18:47.719Z,100696.84
2023-05-22T16:21:14.131Z,100699.31
2023-05-22T16:23:40.994Z,100696.66
2023-05-22T16:26:07.457Z,100696.00
2023-05-22T16:28:33.868Z,100694.59
2023-05-22T16:31:00.324Z,100700.88
2023-05-22T16:33:26.890Z,100700.25
2023-05-22T16:35:53.318Z,100704.16
2023-05-22T16:38:19.749Z,100726.41
2023-05-22T16:40:46.177Z,100748.13
2023-05-22T16:43:13.785Z,100735.00
2023-05-22T16:45:40.535Z,100732.75
2023-05-22T16:48:08.288Z,100756.78
2023-05-22T16:50:34.799Z,100758.78
2023-05-22T16:53:01.195Z,100768.22
2023-05-22T16:55:27.619Z,100764.56
2023-05-22T16:57:54.055Z,100769.78
2023-05-22T17:00:20.637Z,100764.88
2023-05-22T17:02:47.285Z,100768.66
2023-05-22T17:05:13.764Z,100774.38
2023-05-22T17:07:40.450Z,100775.84
2023-05-22T17:10:06.855Z,100748.22
2023-05-22T17:12:33.214Z,100759.75
2023-05-22T17:14:59.705Z,100761.09
2023-05-22T17:17:26.116Z,100772.75
2023-05-22T17:19:53.359Z,100784.72
2023-05-22T17:22:19.768Z,100779.66
2023-05-22T17:24:46.269Z,100787.56
2023-05-22T17:29:39.143Z,100796.22
2023-05-22T17:32:06.313Z,100773.81
2023-05-22T17:34:32.952Z,100780.66
2023-05-22T17:36:59.379Z,100799.81
2023-05-22T17:39:25.821Z,100791.84
2023-05-22T17:41:52.198Z,100793.94
2023-05-22T17:44:18.586Z,100792.97
2023-05-22T17:46:45.021Z,100791.25
2023-05-22T17:49:11.464Z,100795.19
2023-05-22T17:51:37.884Z,100808.44
2023-05-22T17:54:06.138Z,100797.47
2023-05-22T17:56:32.657Z,100805.53
2023-05-22T17:58:59.248Z,100815.41
2023-05-22T18:01:27.256Z,100797.34
2023-05-22T18:03:53.901Z,100806.50
2023-05-22T18:06:23.193Z,100816.44
2023-05-22T18:08:50.461Z,100808.25
2023-05-22T18:11:16.984Z,100809.88
2023-05-22T18:13:43.371Z,100818.00
2023-05-22T18:16:09.809Z,100807.81
2023-05-22T18:18:36.335Z,100816.72
2023-05-22T18:21:02.728Z,100820.16
2023-05-22T18:23:29.233Z,100821.47
2023-05-22T18:25:57.225Z,100832.34
2023-05-22T18:28:26.277Z,100828.53
2023-05-22T18:30:52.669Z,100833.59
2023-05-22T18:33:19.117Z,100837.28
2023-05-22T18:35:45.718Z,100837.16
2023-05-22T18:38:12.357Z,100827.91
2023-05-22T18:40:39.259Z,100839.78
2023-05-22T18:43:06.076Z,100837.47
2023-05-22T18:45:32.544Z,100833.63
2023-05-22T18:47:59.028Z,100838.81
2023-05-22T18:50:26.361Z,100845.34
2023-05-22T18:52:52.818Z,100851.53
2023-05-22T18:55:19.350Z,100857.63
2023-05-22T18:57:45.882Z,100863.38
2023-05-22T19:00:12.344Z,100855.88
2023-05-22T19:02:38.938Z,100872.44
2023-05-22T19:05:05.619Z,100864.38
2023-05-22T19:07:32.245Z,100865.75
2023-05-22T19:09:58.655Z,100878.72
2023-05-22T19:12:25.584Z,100883.63
2023-05-22T19:14:52.548Z,100900.75
2023-05-22T19:17:19.019Z,100885.69
2023-05-22T19:19:46.722Z,100887.16
2023-05-22T19:22:13.185Z,100901.59
2023-05-22T19:24:39.584Z,100896.38
2023-05-22T19:27:06.171Z,100916.97
2023-05-22T19:29:32.617Z,100900.63
2023-05-22T19:31:59.303Z,100935.91
2023-05-22T19:34:25.739Z,100913.47
2023-05-22T19:36:52.266Z,100927.19
2023-05-22T19:39:18.906Z,100920.84
2023-05-22T19:41:45.772Z,100919.81
2023-05-22T19:44:12.617Z,100946.31
2023-05-22T19:46:39.077Z,100926.69
2023-05-22T19:49:05.474Z,100919.59
2023-05-22T19:51:32.416Z,100933.78
2023-05-22T19:53:58.785Z,100917.97
2023-05-22T19:56:25.238Z,100933.28
2023-05-22T19:58:51.644Z,100946.91
2023-05-22T20:01:18.086Z,100953.06
2023-05-22T20:03:44.618Z,100947.00
2023-05-22T20:06:12.359Z,100955.94
2023-05-22T20:08:39.064Z,100953.47
2023-05-22T20:11:05.500Z,100981.72
2023-05-22T20:13:32.404Z,100961.00
2023-05-22T20:16:03.741Z,100968.34
2023-05-22T20:18:33.192Z,100970.56
2023-05-22T20:20:59.670Z,100970.91
2023-05-22T20:23:26.508Z,100981.19
2023-05-22T20:25:53.112Z,100976.59
2023-05-22T20:28:20.041Z,100979.25
2023-05-22T20:30:46.980Z,100971.56
2023-05-22T20:33:14.310Z,100975.47
2023-05-22T20:35:41.068Z,100970.63
2023-05-22T20:38:09.805Z,100980.88
2023-05-22T20:40:42.242Z,100982.31
2023-05-22T20:43:09.007Z,100983.28
2023-05-22T20:45:36.151Z,100985.28
2023-05-22T20:48:02.812Z,100985.22
2023-05-22T20:50:29.255Z,100987.03
2023-05-22T20:52:55.672Z,100998.81
2023-05-22T20:55:22.090Z,100988.19
2023-05-22T20:57:48.779Z,100999.38
2023-05-22T21:00:15.212Z,101005.47
2023-05-22T21:02:41.815Z,101004.25
2023-05-22T21:05:08.305Z,101002.09
2023-05-22T21:07:34.735Z,100998.66
2023-05-22T21:10:01.499Z,100999.94
2023-05-22T21:12:28.067Z,101001.22
2023-05-22T21:14:54.509Z,101004.38
2023-05-22T21:17:21.077Z,101003.97
2023-05-22T21:19:47.532Z,101011.88
2023-05-22T21:22:13.949Z,101007.22
2023-05-22T21:24:40.752Z,101006.22
2023-05-22T21:27:07.274Z,101020.66
2023-05-22T21:29:33.670Z,101012.59
2023-05-22T21:32:00.152Z,101009.31
2023-05-22T21:34:26.653Z,101009.38
2023-05-22T21:36:53.060Z,101004.94
2023-05-22T21:39:19.463Z,101007.38
2023-05-22T21:41:47.159Z,101010.31
2023-05-22T21:44:15.207Z,101019.41
2023-05-22T21:46:41.649Z,101018.34
2023-05-22T21:49:09.579Z,101010.72
2023-05-22T21:51:36.078Z,101011.91
2023-05-22T21:54:02.464Z,101008.56
2023-05-22T21:56:28.886Z,101022.09
2023-05-22T21:58:55.262Z,101023.28
2023-05-22T22:01:21.725Z,101017.78
2023-05-22T22:03:48.189Z,101043.13
2023-05-22T22:06:14.778Z,101033.00
2023-05-22T22:08:41.182Z,101031.56
2023-05-22T22:11:08.405Z,101032.72
2023-05-22T22:13:34.868Z,101033.03
2023-05-22T22:16:01.292Z,101032.09
2023-05-22T22:18:27.922Z,101034.47
2023-05-22T22:20:55.834Z,101027.91
2023-05-22T22:23:22.277Z,101048.47
2023-05-22T22:25:48.781Z,101035.25
2023-05-22T22:28:15.238Z,101054.41
2023-05-22T22:30:41.775Z,101049.88
2023-05-22T22:33:08.587Z,101059.69
2023-05-22T22:35:35.045Z,101054.59
2023-05-22T22:38:01.500Z,101052.91
2023-05-22T22:40:27.926Z,101049.16
2023-05-22T22:42:54.347Z,101063.31
2023-05-22T22:45:20.759Z,101046.81
2023-05-22T22:47:47.384Z,101069.72
2023-05-22T22:50:13.862Z,101062.28
2023-05-22T22:52:40.304Z,101070.84
2023-05-22T22:55:07.130Z,101071.81
2023-05-22T22:57:33.709Z,101077.63
2023-05-22T23:00:00.169Z,101073.13
2023-05-22T23:02:26.630Z,101078.22
2023-05-22T23:04:53.240Z,101076.00
2023-05-22T23:07:19.705Z,101085.88
2023-05-22T23:09:46.101Z,101094.19
2023-05-22T23:12:12.641Z,101092.38
2023-05-22T23:14:39.056Z,101083.00
2023-05-22T23:17:05.836Z,101077.00
2023-05-22T23:19:32.359Z,101072.22
2023-05-22T23:21:58.893Z,101080.88
2023-05-22T23:24:25.252Z,101079.69
2023-05-22T23:26:52.918Z,101083.72
2023-05-22T23:29:19.280Z,101074.59
2023-05-22T23:31:47.370Z,101071.56
2023-05-22T23:34:14.045Z,101082.50
2023-05-22T23:36:40.446Z,101072.75
2023-05-22T23:39:06.946Z,101071.72
2023-05-22T23:41:33.561Z,101065.25
2023-05-22T23:43:59.974Z,101081.88
2023-05-22T23:46:26.474Z,101077.66
2023-05-22T23:48:52.875Z,101065.53
2023-05-22T23:51:19.292Z,101070.78
2023-05-22T23:53:46.062Z,101082.94
2023-05-22T23:56:12.456Z,101068.16
2023-05-22T23:58:38.934Z,101073.28
